Airfield :
LOGIN :

Register | Disclaimer

   EN    FR    IT 

 










Legend :    VFR   Marginal VFR   IFR   Intensive IFR   Very Intensive IFR
Visi :
Ceiling :
>= 8 km
>= 3000ft
5 to 8 km
1000 to 3000 ft
1500m to 5 km
500 to 1000 ft
800 to 1500m
200 to 500 ft
< 800m
< 200 ft
Symbols :   Thunderstorms  Fog  Heavy snow  Heavy precipitations  Wind > 20 kt
SIGMETs :     Misc.  Thunderstorms  Icing  Turbulence  Mountain Waves  Volcanic Ashes







- Airport Elevation : 13 ft
- IATA code : SNR
- Download approach charts


LFRZ - St-Nazaire

CURRENT METAR :
  • 220600Z AUTO 24021KT 5000 BR OVC007 12/11 Q1016 BECMG 28025G44KT BKN013

EXPIRED METARs :
  • 220530Z AUTO 24021KT 9999 OVC008 12/11 Q1016 BECMG 28025G44KT BKN013
  • 220500Z AUTO 24018KT 9999 OVC006 12/11 Q1016 TEMPO 2500 -DZRA BECMG 28025G44KT BKN013
  • 220430Z AUTO 25020KT 8000 -RA OVC005 12/12 Q1017 TEMPO 2500 -DZRA BECMG 28025G44KT BKN013
  • 220400Z AUTO 25019KT 8000 OVC005 12/12 Q1017 TEMPO 2500 -DZRA BECMG 26020G30KT
  • 220330Z AUTO 25022KT 5000 -RA BR OVC005 12/12 Q1017 TEMPO 2500 -DZRA BECMG 26020G30KT

TAF TAF LFRZ
Valid from the 22 at 06:00 until the 23 at 06:00 UTC


220500Z 2206/2306 26020G30KT 5000 -DZ BKN006
BECMG 2206/2208 28025G44KT 9999 NSW BKN013
BECMG 2208/2210 BKN016
BECMG 2211/2213 29018G30KT
BECMG 2214/2216 30012KT
TEMPO 2220/2224 VRB03KT 3000 BR BKN007
BECMG 2300/2303 20011KT 4000 -DZ BKN006
PROB40
TEMPO 2303/2306 2500 -DZRA BKN004
No reported NOTAMs for that airfield.
1 SIGMET reported for the Brest FIR (LFRR) :
 
Severe turbulence
LFRR SIGMET 1 VALID 220400/220800 LFPW
LFRR BREST FIR/UIR SEV TURB FCST WI N4630 W00800 - N4900 W00800 - N4915 W00700 - N4845 W00345 - N4700 W00315 - N4630 W00800 SFC/FL060 STNR INTSF=



MET'MAP, your aeronautical weather chart ! - Copyright ORBIFLY December 2007 - Disclaimer

ORBIFLY MET'MAP TEAM :

Programming & Development : Alexandra Zaïnal
Concept & Development : Baudouin d'Aumeries
Co-Development & Prog : Marc-Olivier Méhu
Technical & hardware support : Manuel Goepfert

Contact : metmap@orbifly.com




SOURCES & CREDITS :

   NOAA